Terminal Aerodrome Forecast
Issued by NWS Louisville, KY

Home | Current Version | Previous Version | Text Only | Print | Product List | Glossary On
Versions: 1 2 3 4 5 6 7 8 9 10 11 12 13 14 15 16
000
FTUS43 KLMK 281100
TAFSDF
TAF
KSDF 281125Z 2812/2918 21010G18KT P6SM BKN050
     FM281500 24012KT P6SM SHRA VCTS BKN045CB
      TEMPO 2816/2819 5SM BR BKN025
     FM282100 29008KT P6SM BKN060
     FM290000 33005KT P6SM SCT060=

USA.gov is the U.S. government's official web portal to all federal, state and local government web resources and services.